createdAt,value
2023-04-19T00:00:39.000Z,7.63
2023-04-19T00:03:09.949Z,6.72
2023-04-19T00:05:38.978Z,7.13
2023-04-19T00:08:08.744Z,5.90
2023-04-19T00:10:40.514Z,5.40
2023-04-19T00:13:09.850Z,5.53
2023-04-19T00:15:39.381Z,4.97
2023-04-19T00:18:10.738Z,4.25
2023-04-19T00:20:42.298Z,4.45
2023-04-19T00:23:11.298Z,4.55
2023-04-19T00:25:40.110Z,4.80
2023-04-19T00:28:13.549Z,5.20
2023-04-19T00:30:44.716Z,5.07
2023-04-19T00:33:14.383Z,4.90
2023-04-19T00:35:43.420Z,5.53
2023-04-19T00:38:12.519Z,4.75
2023-04-19T00:40:44.312Z,4.85
2023-04-19T00:43:20.265Z,4.95
2023-04-19T00:45:50.388Z,4.93
2023-04-19T00:48:23.106Z,4.72
2023-04-19T00:50:55.670Z,4.80
2023-04-19T00:53:24.773Z,4.45
2023-04-19T00:55:57.287Z,5.13
2023-04-19T00:58:28.778Z,4.68
2023-04-19T01:01:01.418Z,5.15
2023-04-19T01:03:33.293Z,6.07
2023-04-19T01:06:05.581Z,5.28
2023-04-19T01:08:37.047Z,4.40
2023-04-19T01:11:10.742Z,4.18
2023-04-19T01:13:40.185Z,4.35
2023-04-19T01:16:09.432Z,4.80
2023-04-19T01:18:40.001Z,5.00
2023-04-19T01:21:12.361Z,4.60
2023-04-19T01:23:41.594Z,5.15
2023-04-19T01:26:13.105Z,4.93
2023-04-19T01:28:42.302Z,4.63
2023-04-19T01:31:11.627Z,5.13
2023-04-19T01:33:43.081Z,4.93
2023-04-19T01:36:14.259Z,4.57
2023-04-19T01:38:44.140Z,5.00
2023-04-19T01:41:20.911Z,5.38
2023-04-19T01:43:52.820Z,5.10
2023-04-19T01:46:21.959Z,4.00
2023-04-19T01:48:53.012Z,4.38
2023-04-19T01:53:56.385Z,4.20
2023-04-19T01:56:28.360Z,5.82
2023-04-19T01:59:00.776Z,5.07
2023-04-19T02:01:30.336Z,5.07
2023-04-19T02:04:00.926Z,5.00
2023-04-19T02:06:32.379Z,4.47
2023-04-19T02:09:05.336Z,6.00
2023-04-19T02:11:35.731Z,5.30
2023-04-19T02:14:04.865Z,4.88
2023-04-19T02:16:36.645Z,5.35
2023-04-19T02:19:08.349Z,4.68
2023-04-19T02:21:37.620Z,5.78
2023-04-19T02:24:08.501Z,5.40
2023-04-19T02:26:41.241Z,5.43
2023-04-19T02:29:10.420Z,5.53
2023-04-19T02:31:51.490Z,5.82
2023-04-19T02:34:20.894Z,5.20
2023-04-19T02:36:54.257Z,4.47
2023-04-19T02:39:23.360Z,6.45
2023-04-19T02:41:54.419Z,6.32
2023-04-19T02:44:23.785Z,5.13
2023-04-19T02:46:55.667Z,5.45
2023-04-19T02:49:26.722Z,5.25
2023-04-19T02:51:55.795Z,5.15
2023-04-19T02:54:27.351Z,5.93
2023-04-19T02:56:58.136Z,5.20
2023-04-19T02:59:27.387Z,5.40
2023-04-19T03:02:03.098Z,5.82
2023-04-19T03:04:34.951Z,5.30
2023-04-19T03:07:07.276Z,5.90
2023-04-19T03:09:36.782Z,4.88
2023-04-19T03:12:08.056Z,4.50
2023-04-19T03:14:39.750Z,5.00
2023-04-19T03:17:11.343Z,5.03
2023-04-19T03:19:43.759Z,5.68
2023-04-19T03:22:13.561Z,4.85
2023-04-19T03:24:42.593Z,5.03
2023-04-19T03:27:20.643Z,5.80
2023-04-19T03:29:57.145Z,6.00
2023-04-19T03:32:29.657Z,6.00
2023-04-19T03:34:59.543Z,5.70
2023-04-19T03:37:28.822Z,6.38
2023-04-19T03:39:58.535Z,5.47
2023-04-19T03:42:39.279Z,4.53
2023-04-19T03:45:16.664Z,4.90
2023-04-19T03:47:51.786Z,4.57
2023-04-19T03:50:22.929Z,5.75
2023-04-19T03:52:56.615Z,5.75
2023-04-19T03:55:28.998Z,5.55
2023-04-19T03:57:59.396Z,5.78
2023-04-19T04:00:38.165Z,4.78
2023-04-19T04:03:07.331Z,5.43
2023-04-19T04:05:37.783Z,5.20
2023-04-19T04:08:09.893Z,6.10
2023-04-19T04:10:41.580Z,6.50
2023-04-19T04:13:13.455Z,5.15
2023-04-19T04:15:50.345Z,5.32
2023-04-19T04:18:22.327Z,5.53
2023-04-19T04:20:54.273Z,5.60
2023-04-19T04:23:28.906Z,5.32
2023-04-19T04:26:01.695Z,6.35
2023-04-19T04:28:46.851Z,4.60
2023-04-19T04:31:19.342Z,5.57
2023-04-19T04:33:49.240Z,5.18
2023-04-19T04:36:21.693Z,3.97
2023-04-19T04:38:52.522Z,4.13
2023-04-19T04:41:28.689Z,4.40
2023-04-19T04:44:11.592Z,5.18
2023-04-19T04:46:43.773Z,4.18
2023-04-19T04:49:18.319Z,4.38
2023-04-19T04:51:47.826Z,3.78
2023-04-19T04:54:17.679Z,3.72
2023-04-19T04:56:52.053Z,3.92
2023-04-19T04:59:23.539Z,4.90
2023-04-19T05:04:22.777Z,5.38
2023-04-19T05:06:57.279Z,5.45
2023-04-19T05:09:32.175Z,5.07
2023-04-19T05:12:03.462Z,4.00
2023-04-19T05:14:35.257Z,3.78
2023-04-19T05:17:06.990Z,4.00
2023-04-19T05:19:39.562Z,4.20
2023-04-19T05:22:15.336Z,4.20
2023-04-19T05:24:44.670Z,4.53
2023-04-19T05:27:14.154Z,4.05
2023-04-19T05:29:47.650Z,3.83
2023-04-19T05:34:53.358Z,3.75
2023-04-19T05:37:27.035Z,3.80
2023-04-19T05:39:57.696Z,3.90
2023-04-19T05:42:27.576Z,4.38
2023-04-19T05:45:03.409Z,3.60
2023-04-19T05:47:34.642Z,3.92
2023-04-19T05:50:22.456Z,3.92
2023-04-19T05:53:11.413Z,4.30
2023-04-19T05:55:41.144Z,3.13
2023-04-19T05:58:11.399Z,3.30
2023-04-19T06:00:40.877Z,2.92
2023-04-19T06:03:14.566Z,3.03
2023-04-19T06:05:44.861Z,3.03
2023-04-19T06:08:17.454Z,3.95
2023-04-19T06:13:26.334Z,3.75
2023-04-19T06:15:57.636Z,3.00
2023-04-19T06:18:31.788Z,4.00
2023-04-19T06:21:00.998Z,4.05
2023-04-19T06:23:29.790Z,4.55
2023-04-19T06:26:01.878Z,4.72
2023-04-19T06:28:31.776Z,5.00
2023-04-19T06:31:03.282Z,4.30
2023-04-19T06:33:32.672Z,5.13
2023-04-19T06:36:04.104Z,4.57
2023-04-19T06:38:36.561Z,4.65
2023-04-19T06:41:09.644Z,4.15
2023-04-19T06:43:43.225Z,4.18
2023-04-19T06:46:16.908Z,4.88
2023-04-19T06:48:51.519Z,4.55
2023-04-19T06:51:26.382Z,5.28
2023-04-19T06:53:55.787Z,5.28
2023-04-19T06:56:48.233Z,4.85
2023-04-19T06:59:22.164Z,4.78
2023-04-19T07:01:53.960Z,5.15
2023-04-19T07:04:28.335Z,5.35
2023-04-19T07:06:57.745Z,5.75
2023-04-19T07:09:27.400Z,5.70
2023-04-19T07:11:56.619Z,5.57
2023-04-19T07:14:25.683Z,4.85
2023-04-19T07:16:58.186Z,5.35
2023-04-19T07:19:32.923Z,5.38
2023-04-19T07:22:04.151Z,4.75
2023-04-19T07:24:35.801Z,4.53
2023-04-19T07:27:07.369Z,4.80
2023-04-19T07:29:37.360Z,5.10
2023-04-19T07:32:06.426Z,5.60
2023-04-19T07:34:35.781Z,5.70
2023-04-19T07:37:04.879Z,6.03
2023-04-19T07:39:39.395Z,5.10
2023-04-19T07:42:08.719Z,5.65
2023-04-19T07:44:37.890Z,6.43
2023-04-19T07:47:09.621Z,7.10
2023-04-19T07:49:40.920Z,5.68
2023-04-19T07:52:10.098Z,5.32
2023-04-19T07:54:40.062Z,5.47
2023-04-19T07:57:13.654Z,5.28
2023-04-19T07:59:42.930Z,5.97
2023-04-19T08:02:14.442Z,5.65
2023-04-19T08:04:43.700Z,6.38
2023-04-19T08:07:15.399Z,6.13
2023-04-19T08:09:44.587Z,5.65
2023-04-19T08:12:23.106Z,5.72
2023-04-19T08:15:15.293Z,6.10
2023-04-19T08:17:52.457Z,6.00
2023-04-19T08:20:24.899Z,5.72
2023-04-19T08:22:54.861Z,5.35
2023-04-19T08:25:28.975Z,5.10
2023-04-19T08:27:58.684Z,6.13
2023-04-19T08:30:30.140Z,5.50
2023-04-19T08:32:59.048Z,6.22
2023-04-19T08:35:28.236Z,5.13
2023-04-19T08:37:59.671Z,6.03
2023-04-19T08:40:34.371Z,5.68
2023-04-19T08:43:07.706Z,6.18
2023-04-19T08:45:37.317Z,5.63
2023-04-19T08:51:03.615Z,6.15
2023-04-19T08:53:37.561Z,5.70
2023-04-19T08:59:07.587Z,6.28
2023-04-19T09:01:43.642Z,5.72
2023-04-19T09:04:27.084Z,7.18
2023-04-19T09:07:04.113Z,6.47
2023-04-19T09:09:43.059Z,6.25
2023-04-19T09:12:18.773Z,6.38
2023-04-19T09:17:23.011Z,6.30
2023-04-19T09:19:54.696Z,6.05
2023-04-19T09:22:23.951Z,5.72
2023-04-19T09:25:29.998Z,5.93
2023-04-19T09:27:45.156Z,6.60
2023-04-19T09:30:24.103Z,6.13
2023-04-19T09:32:57.688Z,6.53
2023-04-19T09:35:49.994Z,6.13
2023-04-19T09:38:21.863Z,6.68
2023-04-19T09:40:52.061Z,6.82
2023-04-19T09:43:57.556Z,6.30
2023-04-19T09:46:53.866Z,5.38
2023-04-19T09:49:41.755Z,5.40
2023-04-19T09:52:17.423Z,5.35
2023-04-19T09:54:49.628Z,5.40
2023-04-19T09:57:24.349Z,5.40
2023-04-19T09:59:53.683Z,5.95
2023-04-19T10:02:25.083Z,6.00
2023-04-19T10:05:16.209Z,6.03
2023-04-19T10:07:47.602Z,5.35
2023-04-19T10:10:20.953Z,4.93
2023-04-19T10:15:33.732Z,5.45
2023-04-19T10:18:14.832Z,4.93
2023-04-19T10:20:43.936Z,4.82
2023-04-19T10:23:16.099Z,4.85
2023-04-19T10:25:48.232Z,5.53
2023-04-19T10:28:20.037Z,5.53
2023-04-19T10:31:03.623Z,5.03
2023-04-19T10:33:37.644Z,5.32
2023-04-19T10:36:10.969Z,6.03
2023-04-19T10:38:48.511Z,6.13
2023-04-19T10:41:22.400Z,5.85
2023-04-19T10:43:58.676Z,5.30
2023-04-19T10:46:32.332Z,7.05
2023-04-19T10:49:05.585Z,5.13
2023-04-19T10:51:44.398Z,5.20
2023-04-19T10:54:34.678Z,5.78
2023-04-19T10:57:08.795Z,5.53
2023-04-19T10:59:43.330Z,5.78
2023-04-19T11:02:28.688Z,5.78
2023-04-19T11:04:59.577Z,6.13
2023-04-19T11:07:28.948Z,6.22
2023-04-19T11:10:00.760Z,6.45
2023-04-19T11:12:32.095Z,6.15
2023-04-19T11:15:03.343Z,6.03
2023-04-19T11:17:33.660Z,6.15
2023-04-19T11:20:11.452Z,6.10
2023-04-19T11:22:46.309Z,6.55
2023-04-19T11:25:22.315Z,6.40
2023-04-19T11:27:54.108Z,6.38
2023-04-19T11:30:31.310Z,6.45
2023-04-19T11:33:07.192Z,6.38
2023-04-19T11:35:40.210Z,6.53
2023-04-19T11:38:17.745Z,6.53
2023-04-19T11:41:04.984Z,6.05
2023-04-19T11:43:39.796Z,6.55
2023-04-19T11:46:12.921Z,6.53
2023-04-19T11:51:24.304Z,6.13
2023-04-19T11:53:55.813Z,6.28
2023-04-19T11:56:27.051Z,6.45
2023-04-19T11:59:01.327Z,6.72
2023-04-19T12:01:32.826Z,6.20
2023-04-19T12:04:05.569Z,6.80
2023-04-19T12:09:12.309Z,6.20
2023-04-19T12:11:49.511Z,5.68
2023-04-19T12:14:21.823Z,6.93
2023-04-19T12:17:14.399Z,7.28
2023-04-19T12:19:44.959Z,6.40
2023-04-19T12:22:24.652Z,6.40
2023-04-19T12:24:56.531Z,6.00
2023-04-19T12:27:30.646Z,7.22
2023-04-19T12:30:02.028Z,6.90
2023-04-19T12:32:35.662Z,6.97
2023-04-19T12:35:05.138Z,6.93
2023-04-19T12:37:36.478Z,6.93
2023-04-19T12:40:09.959Z,7.20
2023-04-19T12:42:39.190Z,7.60
2023-04-19T12:45:14.859Z,6.60
2023-04-19T12:47:45.555Z,7.57
2023-04-19T12:50:20.421Z,6.40
2023-04-19T12:52:52.306Z,7.30
2023-04-19T12:55:21.571Z,6.20
2023-04-19T12:57:50.766Z,5.90
2023-04-19T13:00:20.852Z,6.32
2023-04-19T13:02:52.702Z,7.32
2023-04-19T13:05:22.186Z,6.55
2023-04-19T13:07:59.037Z,7.03
2023-04-19T13:10:28.151Z,7.63
2023-04-19T13:13:01.198Z,5.90
2023-04-19T13:15:33.503Z,6.53
2023-04-19T13:18:02.828Z,6.72
2023-04-19T13:20:34.386Z,6.00
2023-04-19T13:23:03.531Z,5.43
2023-04-19T13:25:35.474Z,5.95
2023-04-19T13:28:04.861Z,6.47
2023-04-19T13:30:34.135Z,5.97
2023-04-19T13:33:08.896Z,5.90
2023-04-19T13:35:38.311Z,6.60
2023-04-19T13:38:10.035Z,6.38
2023-04-19T13:40:39.480Z,6.50
2023-04-19T13:43:11.108Z,6.20
2023-04-19T13:45:42.797Z,6.78
2023-04-19T13:48:13.841Z,5.60
2023-04-19T13:50:44.341Z,6.80
2023-04-19T13:53:13.300Z,7.80
2023-04-19T13:55:46.384Z,7.10
2023-04-19T13:58:15.718Z,6.15
2023-04-19T14:00:48.998Z,5.95
2023-04-19T14:03:21.605Z,5.22
2023-04-19T14:05:54.231Z,4.97
2023-04-19T14:08:25.868Z,4.90
2023-04-19T14:10:58.143Z,5.18
2023-04-19T14:13:27.880Z,5.88
2023-04-19T14:15:59.820Z,7.60
2023-04-19T14:18:29.799Z,6.47
2023-04-19T14:21:01.471Z,6.63
2023-04-19T14:23:33.510Z,6.15
2023-04-19T14:26:05.821Z,6.13
2023-04-19T14:28:37.238Z,5.65
2023-04-19T14:31:08.657Z,6.85
2023-04-19T14:33:38.041Z,6.63
2023-04-19T14:36:10.000Z,6.00
2023-04-19T14:38:47.122Z,6.55
2023-04-19T14:41:19.894Z,5.72
2023-04-19T14:43:52.498Z,7.07
2023-04-19T14:48:55.866Z,7.03
2023-04-19T14:51:25.077Z,6.97
2023-04-19T14:53:53.972Z,7.72
2023-04-19T14:56:29.061Z,7.10
2023-04-19T14:59:03.835Z,7.00
2023-04-19T15:01:35.444Z,7.13
2023-04-19T15:04:04.989Z,6.95
2023-04-19T15:06:42.247Z,7.15
2023-04-19T15:09:11.366Z,7.60
2023-04-19T15:11:40.837Z,7.10
2023-04-19T15:14:12.753Z,7.35
2023-04-19T15:16:42.179Z,6.78
2023-04-19T15:19:13.373Z,6.97
2023-04-19T15:21:42.648Z,7.03
2023-04-19T15:24:14.462Z,6.70
2023-04-19T15:26:48.870Z,7.47
2023-04-19T15:29:21.805Z,7.13
2023-04-19T15:31:53.701Z,7.25
2023-04-19T15:34:26.043Z,7.63
2023-04-19T15:36:58.694Z,8.68
2023-04-19T15:39:31.203Z,7.22
2023-04-19T15:42:00.359Z,7.47
2023-04-19T15:44:30.594Z,6.95
2023-04-19T15:47:02.577Z,7.75
2023-04-19T15:49:32.094Z,7.38
2023-04-19T15:52:05.068Z,6.70
2023-04-19T15:54:34.204Z,7.20
2023-04-19T15:57:03.493Z,7.07
2023-04-19T15:59:32.908Z,7.40
2023-04-19T16:02:02.394Z,6.63
2023-04-19T16:04:39.263Z,7.68
2023-04-19T16:07:09.479Z,7.82
2023-04-19T16:09:41.955Z,7.80
2023-04-19T16:12:11.222Z,7.47
2023-04-19T16:14:40.543Z,7.75
2023-04-19T16:17:12.077Z,7.57
2023-04-19T16:19:41.229Z,7.68
2023-04-19T16:22:10.838Z,7.82
2023-04-19T16:24:40.211Z,7.47
2023-04-19T16:27:11.934Z,7.35
2023-04-19T16:29:41.373Z,7.85
2023-04-19T16:32:11.445Z,8.18
2023-04-19T16:34:41.215Z,7.90
2023-04-19T16:37:10.723Z,11.15
2023-04-19T16:39:45.991Z,11.18
2023-04-19T16:42:15.134Z,11.48
2023-04-19T16:44:46.725Z,9.25
2023-04-19T16:47:16.126Z,8.90
2023-04-19T16:49:51.095Z,7.53
2023-04-19T16:52:23.468Z,7.47
2023-04-19T16:54:54.930Z,9.23
2023-04-19T16:57:24.800Z,8.65
2023-04-19T16:59:54.268Z,9.23
2023-04-19T17:02:25.898Z,11.75
2023-04-19T17:05:00.421Z,9.10
2023-04-19T17:07:29.622Z,9.13
2023-04-19T17:09:59.492Z,7.90
2023-04-19T17:12:28.921Z,9.15
2023-04-19T17:14:59.216Z,8.35
2023-04-19T17:17:28.243Z,10.25
2023-04-19T17:20:00.896Z,8.50
2023-04-19T17:22:30.052Z,8.57
2023-04-19T17:25:03.767Z,9.32
2023-04-19T17:27:35.962Z,9.13
2023-04-19T17:30:08.514Z,9.05
2023-04-19T17:32:38.506Z,9.25
2023-04-19T17:35:10.419Z,8.70
2023-04-19T17:37:44.174Z,7.80
2023-04-19T17:40:14.184Z,8.25
2023-04-19T17:42:46.255Z,7.75
2023-04-19T17:45:18.277Z,8.48
2023-04-19T17:47:47.568Z,8.55
2023-04-19T17:50:18.173Z,8.13
2023-04-19T17:52:50.377Z,8.82
2023-04-19T17:55:26.732Z,8.23
2023-04-19T17:58:01.318Z,8.00
2023-04-19T18:00:31.477Z,8.50
2023-04-19T18:03:04.034Z,8.40
2023-04-19T18:05:45.834Z,7.57
2023-04-19T18:08:15.277Z,8.38
2023-04-19T18:10:44.842Z,8.35
2023-04-19T18:13:17.526Z,8.68
2023-04-19T18:15:49.464Z,8.13
2023-04-19T18:18:19.810Z,7.85
2023-04-19T18:20:53.392Z,7.30
2023-04-19T18:23:25.803Z,7.43
2023-04-19T18:25:59.674Z,7.95
2023-04-19T18:28:32.874Z,9.32
2023-04-19T18:31:02.193Z,8.27
2023-04-19T18:33:35.151Z,8.02
2023-04-19T18:36:05.665Z,7.63
2023-04-19T18:38:35.770Z,8.07
2023-04-19T18:41:05.332Z,8.10
2023-04-19T18:43:37.114Z,7.63
2023-04-19T18:46:09.163Z,7.97
2023-04-19T18:48:40.090Z,8.07
2023-04-19T18:51:12.255Z,7.95
2023-04-19T18:53:43.278Z,6.80
2023-04-19T18:58:46.374Z,7.45
2023-04-19T19:01:18.604Z,8.27
2023-04-19T19:04:10.567Z,7.22
2023-04-19T19:06:38.080Z,7.70
2023-04-19T19:09:09.968Z,7.32
2023-04-19T19:11:55.241Z,7.03
2023-04-19T19:14:26.353Z,8.13
2023-04-19T19:16:55.942Z,8.73
2023-04-19T19:19:27.873Z,8.70
2023-04-19T19:22:00.785Z,8.35
2023-04-19T19:24:32.772Z,8.70
2023-04-19T19:27:08.042Z,7.95
2023-04-19T19:29:40.394Z,9.25
2023-04-19T19:32:12.146Z,8.57
2023-04-19T19:34:51.798Z,8.80
2023-04-19T19:37:27.167Z,8.60
2023-04-19T19:40:05.062Z,8.88
2023-04-19T19:42:39.812Z,9.80
2023-04-19T19:45:12.930Z,8.55
2023-04-19T19:47:45.264Z,9.32
2023-04-19T19:52:57.474Z,8.63
2023-04-19T19:55:27.079Z,9.00
2023-04-19T20:03:03.733Z,9.63
2023-04-19T20:05:33.243Z,8.57
2023-04-19T20:08:13.399Z,7.85
2023-04-19T20:10:43.712Z,7.57
2023-04-19T20:13:20.938Z,8.02
2023-04-19T20:15:55.738Z,8.82
2023-04-19T20:18:27.064Z,8.52
2023-04-19T20:20:59.146Z,7.95
2023-04-19T20:23:28.346Z,8.70
2023-04-19T20:25:57.991Z,9.65
2023-04-19T20:28:27.112Z,8.70
2023-04-19T20:30:58.640Z,8.32
2023-04-19T20:33:30.994Z,8.90
2023-04-19T20:36:08.350Z,7.57
2023-04-19T20:38:40.202Z,7.32
2023-04-19T20:41:09.969Z,6.97
2023-04-19T20:43:39.631Z,7.60
2023-04-19T20:46:11.605Z,7.45
2023-04-19T20:48:40.965Z,7.15
2023-04-19T20:51:10.336Z,7.38
2023-04-19T20:53:39.559Z,7.25
2023-04-19T20:56:08.847Z,8.15
2023-04-19T20:58:41.178Z,8.27
2023-04-19T21:01:17.751Z,9.02
2023-04-19T21:03:47.990Z,7.90
2023-04-19T21:06:17.154Z,7.85
2023-04-19T21:08:48.419Z,7.82
2023-04-19T21:11:18.368Z,8.68
2023-04-19T21:13:50.444Z,8.10
2023-04-19T21:16:19.305Z,9.23
2023-04-19T21:18:48.522Z,8.95
2023-04-19T21:21:19.895Z,7.90
2023-04-19T21:23:51.116Z,7.45
2023-04-19T21:26:20.393Z,6.90
2023-04-19T21:28:50.981Z,8.00
2023-04-19T21:31:21.379Z,6.45
2023-04-19T21:33:58.166Z,6.93
2023-04-19T21:36:30.427Z,7.47
2023-04-19T21:39:02.275Z,6.95
2023-04-19T21:41:34.195Z,6.32
2023-04-19T21:44:09.772Z,5.97
2023-04-19T21:46:44.342Z,6.60
2023-04-19T21:49:14.461Z,7.05
2023-04-19T21:51:43.293Z,7.80
2023-04-19T21:54:14.149Z,7.85
2023-04-19T21:56:51.738Z,7.68
2023-04-19T21:59:20.981Z,7.13
2023-04-19T22:01:53.866Z,7.85
2023-04-19T22:04:23.994Z,6.97
2023-04-19T22:07:03.180Z,5.82
2023-04-19T22:09:34.911Z,7.00
2023-04-19T22:12:04.085Z,6.60
2023-04-19T22:14:36.034Z,6.45
2023-04-19T22:17:07.518Z,6.32
2023-04-19T22:19:36.807Z,6.90
2023-04-19T22:22:10.095Z,6.50
2023-04-19T22:24:55.711Z,6.38
2023-04-19T22:27:26.601Z,5.78
2023-04-19T22:29:55.774Z,7.32
2023-04-19T22:32:24.932Z,6.95
2023-04-19T22:34:53.882Z,6.30
2023-04-19T22:37:22.761Z,5.85
2023-04-19T22:39:55.366Z,6.25
2023-04-19T22:42:24.469Z,6.05
2023-04-19T22:44:53.176Z,5.75
2023-04-19T22:47:27.470Z,7.20
2023-04-19T22:49:58.635Z,6.30
2023-04-19T22:52:32.358Z,6.10
2023-04-19T22:55:01.528Z,6.15
2023-04-19T22:57:30.416Z,5.10
2023-04-19T23:00:01.745Z,6.03
2023-04-19T23:02:33.943Z,4.95
2023-04-19T23:05:09.437Z,5.78
2023-04-19T23:07:40.572Z,6.65
2023-04-19T23:10:11.401Z,5.65
2023-04-19T23:12:40.545Z,6.30
2023-04-19T23:15:10.976Z,6.50
2023-04-19T23:17:40.335Z,5.97
2023-04-19T23:20:13.613Z,6.25
2023-04-19T23:22:44.993Z,6.30
2023-04-19T23:25:14.303Z,6.20
2023-04-19T23:27:43.486Z,5.40
2023-04-19T23:30:16.509Z,6.68
2023-04-19T23:32:48.359Z,6.40
2023-04-19T23:35:20.163Z,6.32
2023-04-19T23:37:51.123Z,7.07
2023-04-19T23:40:23.629Z,5.97
2023-04-19T23:42:52.728Z,6.15
2023-04-19T23:45:24.482Z,6.13
2023-04-19T23:47:58.167Z,6.32
2023-04-19T23:50:30.518Z,6.28
2023-04-19T23:52:59.592Z,5.95
2023-04-19T23:55:31.333Z,6.38
2023-04-19T23:58:00.246Z,6.22
